createdAt,value
2023-03-28T00:01:35.788Z,66.10
2023-03-28T00:04:03.550Z,66.10
2023-03-28T00:06:31.769Z,65.90
2023-03-28T00:08:58.736Z,65.80
2023-03-28T00:11:25.732Z,65.60
2023-03-28T00:13:57.868Z,65.60
2023-03-28T00:16:32.771Z,65.60
2023-03-28T00:19:01.143Z,65.80
2023-03-28T00:21:29.818Z,65.50
2023-03-28T00:24:02.179Z,65.40
2023-03-28T00:26:30.226Z,65.40
2023-03-28T00:28:57.253Z,65.20
2023-03-28T00:31:25.084Z,65.20
2023-03-28T00:33:52.729Z,65.20
2023-03-28T00:36:23.133Z,65.20
2023-03-28T00:38:50.302Z,65.20
2023-03-28T00:41:18.506Z,65.10
2023-03-28T00:43:46.755Z,65.10
2023-03-28T00:46:16.928Z,65.00
2023-03-28T00:48:47.662Z,64.60
2023-03-28T00:51:15.460Z,64.40
2023-03-28T00:53:43.306Z,64.40
2023-03-28T00:56:12.223Z,64.40
2023-03-28T00:58:42.743Z,64.40
2023-03-28T01:01:12.308Z,64.30
2023-03-28T01:03:41.621Z,64.40
2023-03-28T01:06:09.654Z,64.40
2023-03-28T01:08:38.681Z,64.50
2023-03-28T01:11:06.008Z,64.60
2023-03-28T01:13:36.248Z,64.60
2023-03-28T01:16:04.008Z,64.60
2023-03-28T01:18:34.766Z,64.60
2023-03-28T01:21:10.696Z,64.50
2023-03-28T01:23:37.488Z,64.50
2023-03-28T01:26:04.336Z,64.40
2023-03-28T01:28:40.121Z,64.50
2023-03-28T01:31:25.871Z,64.40
2023-03-28T01:34:01.773Z,64.40
2023-03-28T01:36:52.786Z,64.30
2023-03-28T01:39:25.843Z,64.10
2023-03-28T01:41:52.636Z,64.10
2023-03-28T01:44:28.884Z,64.10
2023-03-28T01:47:01.208Z,63.90
2023-03-28T01:49:36.104Z,63.90
2023-03-28T01:52:35.355Z,63.70
2023-03-28T01:55:05.744Z,63.60
2023-03-28T01:57:46.334Z,63.90
2023-03-28T02:00:29.697Z,63.90
2023-03-28T02:02:59.175Z,63.90
2023-03-28T02:05:27.743Z,63.90
2023-03-28T02:07:55.158Z,63.90
2023-03-28T02:10:24.653Z,63.90
2023-03-28T02:13:03.676Z,63.70
2023-03-28T02:15:32.312Z,63.90
2023-03-28T02:18:04.381Z,63.90
2023-03-28T02:20:32.924Z,63.90
2023-03-28T02:23:05.025Z,63.90
2023-03-28T02:25:32.556Z,63.90
2023-03-28T02:28:01.485Z,63.70
2023-03-28T02:30:28.594Z,63.50
2023-03-28T02:32:59.658Z,63.50
2023-03-28T02:35:29.619Z,63.50
2023-03-28T02:38:14.322Z,63.50
2023-03-28T02:40:44.246Z,63.50
2023-03-28T02:43:30.090Z,63.30
2023-03-28T02:45:59.995Z,63.40
2023-03-28T02:48:29.798Z,63.40
2023-03-28T02:51:04.543Z,63.30
2023-03-28T02:54:02.759Z,63.20
2023-03-28T02:56:32.500Z,63.20
2023-03-28T02:59:02.284Z,63.10
2023-03-28T03:01:31.945Z,62.90
2023-03-28T03:03:59.242Z,62.80
2023-03-28T03:06:26.615Z,62.70
2023-03-28T03:08:53.544Z,62.60
2023-03-28T03:11:21.574Z,62.60
2023-03-28T03:13:48.525Z,62.60
2023-03-28T03:16:15.505Z,62.50
2023-03-28T03:18:42.476Z,62.20
2023-03-28T03:21:09.446Z,62.00
2023-03-28T03:23:36.923Z,61.90
2023-03-28T03:26:03.905Z,61.90
2023-03-28T03:28:32.268Z,62.00
2023-03-28T03:30:59.231Z,62.00
2023-03-28T03:33:26.518Z,62.00
2023-03-28T03:35:53.622Z,61.80
2023-03-28T03:38:20.757Z,61.80
2023-03-28T03:40:47.711Z,61.80
2023-03-28T03:43:14.605Z,61.70
2023-03-28T03:45:41.701Z,61.80
2023-03-28T03:48:08.656Z,61.90
2023-03-28T03:50:36.366Z,61.90
2023-03-28T03:53:03.238Z,61.80
2023-03-28T03:55:30.491Z,61.80
2023-03-28T03:57:57.405Z,61.80
2023-03-28T04:00:24.325Z,61.70
2023-03-28T04:02:51.893Z,61.60
2023-03-28T04:05:18.933Z,61.60
2023-03-28T04:07:46.338Z,61.40
2023-03-28T04:10:13.344Z,61.50
2023-03-28T04:12:40.469Z,61.40
2023-03-28T04:15:07.768Z,61.40
2023-03-28T04:17:35.566Z,61.30
2023-03-28T04:20:08.150Z,61.20
2023-03-28T04:22:36.121Z,61.20
2023-03-28T04:25:14.287Z,61.00
2023-03-28T04:27:49.669Z,60.90
2023-03-28T04:30:18.287Z,60.90
2023-03-28T04:32:49.684Z,61.10
2023-03-28T04:35:16.796Z,61.10
2023-03-28T04:37:43.835Z,61.00
2023-03-28T04:40:10.945Z,60.90
2023-03-28T04:42:38.492Z,60.90
2023-03-28T04:45:06.543Z,61.00
2023-03-28T04:47:33.610Z,61.10
2023-03-28T04:50:00.887Z,61.10
2023-03-28T04:52:27.776Z,61.10
2023-03-28T04:54:54.721Z,61.30
2023-03-28T04:57:21.871Z,61.20
2023-03-28T04:59:48.974Z,61.20
2023-03-28T05:02:15.962Z,61.30
2023-03-28T05:04:43.444Z,61.20
2023-03-28T05:07:10.460Z,61.20
2023-03-28T05:09:38.190Z,61.50
2023-03-28T05:12:05.354Z,61.50
2023-03-28T05:14:32.314Z,61.50
2023-03-28T05:16:59.182Z,61.60
2023-03-28T05:19:26.268Z,61.70
2023-03-28T05:21:53.095Z,61.60
2023-03-28T05:24:19.970Z,61.70
2023-03-28T05:26:47.338Z,61.80
2023-03-28T05:29:14.252Z,61.80
2023-03-28T05:31:41.235Z,61.70
2023-03-28T05:34:08.153Z,61.50
2023-03-28T05:36:35.000Z,61.50
2023-03-28T05:39:02.035Z,61.40
2023-03-28T05:41:28.985Z,61.50
2023-03-28T05:43:56.152Z,61.40
2023-03-28T05:46:23.089Z,61.40
2023-03-28T05:48:50.193Z,61.20
2023-03-28T05:51:17.227Z,61.10
2023-03-28T05:53:44.147Z,61.30
2023-03-28T05:56:11.172Z,61.40
2023-03-28T05:58:38.116Z,61.60
2023-03-28T06:01:05.855Z,61.50
2023-03-28T06:03:32.909Z,61.70
2023-03-28T06:06:00.306Z,61.70
2023-03-28T06:08:27.788Z,61.80
2023-03-28T06:10:54.746Z,61.90
2023-03-28T06:13:21.669Z,61.70
2023-03-28T06:15:48.675Z,61.60
2023-03-28T06:18:15.631Z,61.80
2023-03-28T06:20:43.106Z,61.60
2023-03-28T06:23:10.037Z,61.40
2023-03-28T06:25:37.056Z,61.40
2023-03-28T06:28:07.149Z,61.10
2023-03-28T06:30:34.178Z,60.60
2023-03-28T06:33:01.554Z,60.40
2023-03-28T06:35:28.746Z,60.50
2023-03-28T06:37:55.635Z,60.60
2023-03-28T06:40:22.601Z,60.60
2023-03-28T06:42:49.648Z,60.60
2023-03-28T06:45:16.609Z,60.30
2023-03-28T06:47:43.693Z,59.90
2023-03-28T06:50:11.584Z,59.70
2023-03-28T06:52:38.541Z,59.80
2023-03-28T06:55:05.748Z,59.80
2023-03-28T06:57:32.819Z,59.60
2023-03-28T06:59:59.731Z,59.60
2023-03-28T07:02:26.916Z,59.30
2023-03-28T07:04:55.624Z,59.30
2023-03-28T07:07:22.546Z,59.30
2023-03-28T07:09:51.962Z,59.50
2023-03-28T07:12:19.146Z,59.30
2023-03-28T07:14:47.253Z,59.40
2023-03-28T07:17:14.300Z,59.20
2023-03-28T07:19:41.107Z,59.10
2023-03-28T07:22:08.032Z,59.00
2023-03-28T07:24:34.944Z,58.80
2023-03-28T07:27:14.818Z,58.90
2023-03-28T07:29:42.866Z,58.90
2023-03-28T07:32:10.125Z,58.80
2023-03-28T07:34:36.997Z,58.90
2023-03-28T07:37:05.316Z,58.50
2023-03-28T07:39:32.394Z,58.10
2023-03-28T07:41:59.275Z,58.00
2023-03-28T07:44:26.418Z,57.90
2023-03-28T07:46:53.313Z,57.60
2023-03-28T07:49:21.548Z,57.40
2023-03-28T07:51:48.422Z,57.30
2023-03-28T07:54:18.037Z,57.40
2023-03-28T07:56:45.695Z,57.50
2023-03-28T07:59:15.430Z,57.10
2023-03-28T08:01:43.576Z,56.60
2023-03-28T08:04:11.500Z,56.40
2023-03-28T08:06:39.066Z,56.30
2023-03-28T08:09:10.477Z,55.70
2023-03-28T08:11:38.145Z,56.10
2023-03-28T08:14:05.836Z,55.80
2023-03-28T08:16:33.256Z,55.40
2023-03-28T08:19:10.497Z,55.60
2023-03-28T08:21:38.190Z,55.70
2023-03-28T08:24:06.028Z,55.50
2023-03-28T08:26:32.991Z,55.40
2023-03-28T08:28:59.929Z,55.60
2023-03-28T08:31:27.752Z,55.40
2023-03-28T08:33:55.258Z,55.30
2023-03-28T08:36:23.369Z,55.20
2023-03-28T08:38:50.467Z,55.10
2023-03-28T08:41:17.293Z,55.20
2023-03-28T08:43:56.584Z,55.00
2023-03-28T08:46:26.329Z,54.80
2023-03-28T08:48:55.081Z,55.00
2023-03-28T08:51:28.092Z,54.90
2023-03-28T08:53:55.314Z,54.60
2023-03-28T08:56:22.800Z,54.40
2023-03-28T08:59:04.965Z,54.20
2023-03-28T09:01:33.126Z,54.20
2023-03-28T09:04:00.972Z,53.80
2023-03-28T09:06:33.952Z,53.60
2023-03-28T09:09:17.280Z,53.80
2023-03-28T09:11:44.075Z,53.50
2023-03-28T09:14:20.161Z,53.40
2023-03-28T09:16:47.056Z,52.80
2023-03-28T09:19:34.202Z,52.60
2023-03-28T09:22:15.876Z,52.80
2023-03-28T09:25:02.371Z,52.90
2023-03-28T09:27:42.140Z,52.80
2023-03-28T09:30:27.532Z,52.30
2023-03-28T09:32:58.459Z,51.90
2023-03-28T09:35:27.908Z,52.20
2023-03-28T09:37:59.064Z,52.90
2023-03-28T09:40:28.044Z,53.60
2023-03-28T09:43:03.493Z,52.90
2023-03-28T09:45:36.461Z,51.70
2023-03-28T09:48:11.564Z,50.90
2023-03-28T09:50:38.622Z,49.90
2023-03-28T09:53:05.694Z,49.60
2023-03-28T09:55:35.593Z,49.40
2023-03-28T09:58:02.704Z,49.60
2023-03-28T10:00:29.892Z,49.30
2023-03-28T10:02:56.866Z,49.00
2023-03-28T10:05:38.184Z,48.80
2023-03-28T10:08:06.895Z,48.70
2023-03-28T10:10:33.882Z,48.60
2023-03-28T10:13:05.032Z,48.60
2023-03-28T10:15:39.516Z,48.30
2023-03-28T10:18:06.977Z,49.00
2023-03-28T10:20:37.865Z,48.50
2023-03-28T10:23:05.878Z,48.60
2023-03-28T10:25:46.271Z,48.00
2023-03-28T10:28:18.232Z,48.00
2023-03-28T10:30:52.529Z,47.80
2023-03-28T10:33:23.121Z,47.70
2023-03-28T10:35:57.993Z,47.70
2023-03-28T10:38:26.311Z,47.30
2023-03-28T10:41:12.940Z,47.40
2023-03-28T10:43:40.635Z,47.50
2023-03-28T10:46:10.957Z,47.60
2023-03-28T10:48:39.342Z,47.80
2023-03-28T10:51:09.088Z,47.30
2023-03-28T10:53:38.675Z,47.80
2023-03-28T10:56:24.531Z,48.50
2023-03-28T10:58:54.506Z,48.40
2023-03-28T11:01:25.026Z,48.80
2023-03-28T11:03:55.324Z,49.10
2023-03-28T11:06:34.519Z,48.20
2023-03-28T11:09:07.700Z,47.50
2023-03-28T11:11:49.571Z,46.70
2023-03-28T11:14:28.052Z,46.20
2023-03-28T11:17:02.506Z,46.50
2023-03-28T11:19:58.876Z,46.70
2023-03-28T11:22:28.626Z,46.30
2023-03-28T11:24:55.492Z,46.10
2023-03-28T11:27:27.448Z,45.60
2023-03-28T11:29:57.230Z,45.30
2023-03-28T11:32:24.106Z,44.70
2023-03-28T11:34:57.137Z,44.50
2023-03-28T11:37:36.414Z,44.00
2023-03-28T11:40:08.993Z,44.60
2023-03-28T11:42:40.083Z,42.80
2023-03-28T11:45:13.039Z,42.30
2023-03-28T11:47:47.168Z,42.80
2023-03-28T11:50:15.247Z,43.00
2023-03-28T11:52:52.203Z,43.20
2023-03-28T11:55:20.947Z,43.50
2023-03-28T11:57:53.359Z,43.70
2023-03-28T12:00:34.610Z,44.20
2023-03-28T12:03:21.225Z,44.20
2023-03-28T12:06:04.629Z,44.50
2023-03-28T12:08:38.530Z,44.50
2023-03-28T12:11:07.629Z,45.10
2023-03-28T12:14:05.065Z,45.60
2023-03-28T12:16:42.034Z,45.50
2023-03-28T12:19:13.946Z,45.50
2023-03-28T12:21:45.959Z,45.60
2023-03-28T12:24:25.719Z,46.00
2023-03-28T12:26:56.352Z,46.20
2023-03-28T12:29:28.178Z,46.70
2023-03-28T12:31:58.585Z,46.70
2023-03-28T12:34:32.258Z,46.70
2023-03-28T12:37:06.426Z,47.80
2023-03-28T12:39:44.879Z,47.70
2023-03-28T12:42:13.015Z,47.20
2023-03-28T12:44:45.946Z,45.60
2023-03-28T12:47:16.186Z,45.50
2023-03-28T12:49:49.541Z,45.00
2023-03-28T12:52:22.545Z,44.40
2023-03-28T12:54:58.917Z,44.60
2023-03-28T12:57:42.750Z,44.00
2023-03-28T13:00:13.943Z,44.10
2023-03-28T13:02:49.895Z,44.40
2023-03-28T13:05:25.655Z,44.50
2023-03-28T13:07:59.799Z,44.30
2023-03-28T13:10:46.686Z,44.30
2023-03-28T13:13:20.419Z,44.20
2023-03-28T13:16:04.114Z,44.00
2023-03-28T13:18:32.645Z,43.40
2023-03-28T13:21:01.268Z,43.20
2023-03-28T13:23:30.143Z,43.30
2023-03-28T13:25:59.347Z,43.30
2023-03-28T13:28:30.763Z,43.90
2023-03-28T13:31:08.418Z,44.00
2023-03-28T13:33:47.158Z,43.00
2023-03-28T13:36:18.758Z,42.80
2023-03-28T13:39:07.422Z,42.20
2023-03-28T13:41:36.315Z,42.00
2023-03-28T13:44:11.051Z,42.10
2023-03-28T13:46:42.842Z,42.30
2023-03-28T13:49:28.780Z,42.10
2023-03-28T13:52:05.249Z,42.10
2023-03-28T13:54:32.489Z,42.30
2023-03-28T13:57:04.971Z,41.90
2023-03-28T13:59:34.649Z,41.70
2023-03-28T14:02:02.857Z,41.70
2023-03-28T14:04:29.788Z,41.40
2023-03-28T14:06:57.198Z,41.10
2023-03-28T14:09:26.770Z,40.60
2023-03-28T14:11:58.096Z,40.50
2023-03-28T14:14:36.415Z,40.40
2023-03-28T14:17:05.058Z,40.40
2023-03-28T14:19:50.833Z,39.70
2023-03-28T14:22:19.132Z,39.30
2023-03-28T14:24:47.648Z,39.60
2023-03-28T14:27:15.739Z,39.40
2023-03-28T14:29:54.842Z,39.70
2023-03-28T14:32:24.692Z,39.90
2023-03-28T14:34:53.990Z,39.70
2023-03-28T14:37:22.703Z,39.70
2023-03-28T14:39:50.166Z,39.70
2023-03-28T14:42:18.490Z,39.70
2023-03-28T14:44:51.360Z,39.00
2023-03-28T14:47:26.895Z,39.30
2023-03-28T14:49:54.334Z,39.50
2023-03-28T14:52:31.915Z,39.90
2023-03-28T14:54:59.100Z,40.00
2023-03-28T14:57:26.509Z,40.20
2023-03-28T14:59:54.329Z,40.30
2023-03-28T15:02:36.518Z,40.30
2023-03-28T15:05:07.315Z,40.40
2023-03-28T15:07:35.860Z,40.20
2023-03-28T15:10:14.805Z,40.30
2023-03-28T15:12:57.415Z,40.20
2023-03-28T15:15:28.777Z,40.00
2023-03-28T15:17:57.265Z,40.30
2023-03-28T15:20:27.060Z,40.40
2023-03-28T15:22:58.260Z,40.40
2023-03-28T15:25:25.512Z,40.20
2023-03-28T15:27:56.188Z,40.10
2023-03-28T15:30:23.661Z,40.20
2023-03-28T15:32:51.517Z,40.20
2023-03-28T15:35:26.619Z,40.20
2023-03-28T15:37:59.832Z,40.30
2023-03-28T15:40:29.535Z,40.50
2023-03-28T15:42:56.705Z,40.50
2023-03-28T15:45:28.659Z,40.60
2023-03-28T15:47:56.067Z,40.70
2023-03-28T15:50:23.100Z,40.90
2023-03-28T15:52:55.941Z,41.00
2023-03-28T15:55:23.892Z,40.90
2023-03-28T15:57:50.788Z,40.80
2023-03-28T16:00:44.137Z,41.00
2023-03-28T16:03:20.236Z,43.20
2023-03-28T16:05:48.574Z,41.90
2023-03-28T16:08:22.741Z,41.70
2023-03-28T16:10:49.678Z,41.70
2023-03-28T16:13:17.521Z,41.60
2023-03-28T16:15:44.602Z,41.50
2023-03-28T16:18:11.631Z,41.30
2023-03-28T16:20:38.818Z,41.00
2023-03-28T16:23:07.283Z,40.60
2023-03-28T16:25:34.453Z,40.70
2023-03-28T16:28:01.654Z,40.70
2023-03-28T16:30:30.854Z,40.50
2023-03-28T16:32:57.814Z,40.50
2023-03-28T16:35:27.348Z,40.40
2023-03-28T16:37:54.927Z,40.10
2023-03-28T16:40:22.838Z,40.10
2023-03-28T16:42:49.817Z,40.10
2023-03-28T16:45:17.578Z,40.10
2023-03-28T16:47:44.735Z,40.40
2023-03-28T16:50:11.687Z,40.30
2023-03-28T16:52:39.293Z,40.40
2023-03-28T16:55:07.757Z,40.40
2023-03-28T16:57:34.842Z,40.50
2023-03-28T17:00:03.086Z,40.60
2023-03-28T17:02:30.165Z,40.70
2023-03-28T17:04:57.172Z,40.70
2023-03-28T17:07:24.134Z,40.60
2023-03-28T17:09:51.064Z,40.70
2023-03-28T17:12:21.321Z,40.80
2023-03-28T17:14:48.334Z,40.60
2023-03-28T17:17:15.768Z,40.60
2023-03-28T17:19:43.630Z,40.60
2023-03-28T17:22:10.500Z,40.60
2023-03-28T17:24:37.361Z,40.70
2023-03-28T17:27:04.518Z,40.70
2023-03-28T17:29:32.105Z,40.70
2023-03-28T17:31:59.094Z,40.70
2023-03-28T17:34:26.164Z,40.80
2023-03-28T17:36:53.859Z,40.80
2023-03-28T17:39:21.936Z,40.80
2023-03-28T17:41:48.859Z,40.80
2023-03-28T17:44:15.736Z,40.90
2023-03-28T17:46:44.813Z,40.90
2023-03-28T17:49:11.733Z,40.90
2023-03-28T17:51:39.535Z,41.00
2023-03-28T17:54:12.182Z,41.00
2023-03-28T17:56:39.997Z,41.10
2023-03-28T17:59:07.606Z,41.10
2023-03-28T18:01:34.678Z,41.20
2023-03-28T18:04:02.025Z,41.30
2023-03-28T18:06:29.126Z,41.40
2023-03-28T18:08:56.254Z,41.40
2023-03-28T18:11:23.204Z,41.40
2023-03-28T18:13:52.701Z,41.40
2023-03-28T18:16:19.673Z,41.50
2023-03-28T18:18:46.763Z,41.60
2023-03-28T18:21:13.906Z,41.80
2023-03-28T18:23:41.049Z,41.80
2023-03-28T18:26:08.338Z,41.80
2023-03-28T18:28:36.526Z,41.80
2023-03-28T18:31:10.591Z,41.80
2023-03-28T18:33:38.341Z,41.80
2023-03-28T18:36:05.649Z,41.80
2023-03-28T18:38:42.911Z,41.80
2023-03-28T18:41:10.441Z,41.80
2023-03-28T18:43:37.616Z,41.80
2023-03-28T18:46:05.625Z,41.80
2023-03-28T18:48:32.837Z,41.80
2023-03-28T18:50:59.987Z,41.80
2023-03-28T18:53:28.891Z,41.80
2023-03-28T18:55:55.870Z,42.00
2023-03-28T18:58:26.365Z,42.00
2023-03-28T19:00:59.863Z,42.10
2023-03-28T19:03:28.006Z,42.00
2023-03-28T19:05:59.058Z,42.00
2023-03-28T19:08:27.147Z,42.00
2023-03-28T19:10:55.095Z,42.00
2023-03-28T19:13:22.599Z,42.30
2023-03-28T19:16:02.957Z,42.30
2023-03-28T19:18:30.206Z,42.50
2023-03-28T19:20:58.429Z,42.70
2023-03-28T19:23:26.049Z,42.90
2023-03-28T19:25:53.081Z,43.00
2023-03-28T19:28:20.714Z,43.20
2023-03-28T19:30:48.299Z,43.50
2023-03-28T19:33:15.303Z,43.70
2023-03-28T19:35:42.629Z,43.90
2023-03-28T19:38:09.527Z,44.00
2023-03-28T19:40:36.475Z,44.10
2023-03-28T19:43:03.431Z,44.20
2023-03-28T19:45:30.562Z,44.30
2023-03-28T19:47:57.531Z,44.40
2023-03-28T19:50:24.476Z,44.40
2023-03-28T19:52:51.379Z,44.30
2023-03-28T19:55:18.458Z,44.40
2023-03-28T19:57:45.796Z,44.40
2023-03-28T20:00:13.008Z,44.30
2023-03-28T20:02:40.344Z,44.30
2023-03-28T20:05:07.607Z,44.30
2023-03-28T20:07:34.566Z,44.20
2023-03-28T20:10:01.478Z,44.30
2023-03-28T20:12:28.566Z,44.40
2023-03-28T20:14:56.970Z,44.50
2023-03-28T20:17:24.268Z,44.50
2023-03-28T20:19:54.168Z,44.60
2023-03-28T20:22:25.869Z,44.50
2023-03-28T20:24:52.788Z,44.50
2023-03-28T20:27:19.669Z,44.70
2023-03-28T20:29:47.139Z,44.70
2023-03-28T20:32:14.074Z,44.70
2023-03-28T20:34:41.041Z,44.60
2023-03-28T20:37:07.934Z,44.70
2023-03-28T20:39:37.036Z,44.70
2023-03-28T20:42:05.891Z,44.60
2023-03-28T20:44:38.518Z,44.70
2023-03-28T20:47:07.824Z,44.70
2023-03-28T20:49:36.225Z,44.70
2023-03-28T20:52:03.153Z,44.80
2023-03-28T20:54:30.164Z,44.90
2023-03-28T20:56:57.101Z,45.00
2023-03-28T20:59:27.318Z,45.10
2023-03-28T21:01:54.784Z,45.10
2023-03-28T21:04:22.293Z,45.10
2023-03-28T21:06:50.366Z,45.30
2023-03-28T21:09:18.285Z,45.50
2023-03-28T21:11:45.388Z,45.50
2023-03-28T21:14:13.644Z,45.60
2023-03-28T21:16:41.076Z,45.80
2023-03-28T21:19:08.769Z,46.00
2023-03-28T21:21:35.723Z,46.10
2023-03-28T21:24:03.404Z,46.30
2023-03-28T21:26:31.568Z,46.40
2023-03-28T21:28:58.908Z,46.70
2023-03-28T21:31:27.342Z,46.80
2023-03-28T21:33:57.120Z,46.90
2023-03-28T21:36:25.217Z,47.20
2023-03-28T21:38:52.227Z,47.40
2023-03-28T21:41:19.282Z,47.60
2023-03-28T21:43:48.075Z,47.90
2023-03-28T21:46:18.592Z,48.10
2023-03-28T21:48:48.248Z,48.20
2023-03-28T21:51:16.018Z,48.20
2023-03-28T21:53:42.976Z,48.40
2023-03-28T21:56:11.782Z,48.40
2023-03-28T21:58:38.907Z,48.50
2023-03-28T22:01:06.218Z,48.70
2023-03-28T22:03:35.833Z,48.50
2023-03-28T22:06:02.956Z,48.70
2023-03-28T22:08:29.864Z,48.70
2023-03-28T22:10:58.742Z,48.80
2023-03-28T22:13:25.978Z,48.80
2023-03-28T22:15:53.175Z,49.10
2023-03-28T22:18:20.841Z,49.10
2023-03-28T22:20:58.449Z,49.20
2023-03-28T22:23:25.795Z,49.40
2023-03-28T22:25:53.256Z,49.50
2023-03-28T22:28:24.834Z,49.50
2023-03-28T22:30:55.541Z,49.60
2023-03-28T22:33:23.673Z,49.50
2023-03-28T22:35:50.694Z,49.60
2023-03-28T22:38:19.318Z,49.90
2023-03-28T22:40:46.791Z,50.00
2023-03-28T22:43:13.744Z,50.20
2023-03-28T22:45:40.601Z,50.30
2023-03-28T22:48:14.325Z,50.60
2023-03-28T22:50:42.169Z,50.50
2023-03-28T22:53:10.109Z,50.50
2023-03-28T22:55:36.977Z,50.80
2023-03-28T22:58:04.091Z,51.30
2023-03-28T23:00:31.850Z,51.40
2023-03-28T23:02:58.813Z,51.40
2023-03-28T23:05:25.728Z,51.40
2023-03-28T23:07:54.161Z,51.60
2023-03-28T23:10:21.169Z,52.00
2023-03-28T23:12:48.889Z,52.40
2023-03-28T23:15:15.922Z,52.50
2023-03-28T23:17:43.165Z,52.60
2023-03-28T23:20:13.016Z,52.60
2023-03-28T23:22:41.143Z,52.80
2023-03-28T23:25:08.306Z,53.00
2023-03-28T23:27:35.431Z,53.00
2023-03-28T23:30:02.355Z,53.20
2023-03-28T23:32:29.374Z,53.30
2023-03-28T23:34:56.826Z,53.30
2023-03-28T23:37:27.743Z,53.30
2023-03-28T23:39:55.497Z,53.20
2023-03-28T23:42:22.645Z,53.10
2023-03-28T23:44:49.617Z,53.00
2023-03-28T23:47:16.693Z,53.10
2023-03-28T23:49:43.765Z,53.20
2023-03-28T23:52:13.173Z,53.50
2023-03-28T23:54:40.387Z,53.70
2023-03-28T23:57:07.676Z,53.70
2023-03-28T23:59:34.855Z,53.60
